sensor_id;sensor_type;location;lat;lon;timestamp;pressure;altitude;pressure_sealevel;temperature;humidity
6136;BME280;24008;42.664;23.372;2023-01-29T00:01:10;94769.94;;;-0.55;98.99
6136;BME280;24008;42.664;23.372;2023-01-29T00:03:36;94831.59;;;-0.15;99.26
6136;BME280;24008;42.664;23.372;2023-01-29T00:06:05;94827.53;;;-0.17;98.72
6136;BME280;24008;42.664;23.372;2023-01-29T00:08:33;94830.84;;;-0.17;98.98
6136;BME280;24008;42.664;23.372;2023-01-29T00:11:00;94833.50;;;-0.20;98.90
6136;BME280;24008;42.664;23.372;2023-01-29T00:13:27;94716.53;;;-0.93;98.57
6136;BME280;24008;42.664;23.372;2023-01-29T00:15:55;94857.66;;;-0.17;98.99
6136;BME280;24008;42.664;23.372;2023-01-29T00:18:22;94642.00;;;-1.42;98.63
6136;BME280;24008;42.664;23.372;2023-01-29T00:20:49;94676.88;;;-1.21;99.13
6136;BME280;24008;42.664;23.372;2023-01-29T00:23:18;94846.28;;;-0.07;98.75
6136;BME280;24008;42.664;23.372;2023-01-29T00:25:45;94850.34;;;-0.05;98.85
6136;BME280;24008;42.664;23.372;2023-01-29T00:28:12;94792.59;;;-0.39;98.99
6136;BME280;24008;42.664;23.372;2023-01-29T00:30:39;94851.47;;;-0.10;98.73
6136;BME280;24008;42.664;23.372;2023-01-29T00:33:06;94853.16;;;-0.11;99.01
6136;BME280;24008;42.664;23.372;2023-01-29T00:35:33;94854.78;;;-0.10;99.20
6136;BME280;24008;42.664;23.372;2023-01-29T00:38:00;94848.94;;;-0.10;99.39
6136;BME280;24008;42.664;23.372;2023-01-29T00:40:28;94856.56;;;-0.12;98.95
6136;BME280;24008;42.664;23.372;2023-01-29T00:43:14;94764.22;;;-0.76;99.13
6136;BME280;24008;42.664;23.372;2023-01-29T00:45:58;94854.28;;;-0.16;99.30
6136;BME280;24008;42.664;23.372;2023-01-29T00:48:25;94852.59;;;-0.16;99.81
6136;BME280;24008;42.664;23.372;2023-01-29T00:50:52;94852.84;;;-0.22;99.78
6136;BME280;24008;42.664;23.372;2023-01-29T00:53:19;94791.50;;;-0.51;99.90
6136;BME280;24008;42.664;23.372;2023-01-29T00:55:47;94855.22;;;-0.19;100.00
6136;BME280;24008;42.664;23.372;2023-01-29T00:58:13;94803.81;;;-0.46;100.00
6136;BME280;24008;42.664;23.372;2023-01-29T01:00:46;94852.94;;;-0.23;100.00
6136;BME280;24008;42.664;23.372;2023-01-29T01:03:13;94853.91;;;-0.26;100.00
6136;BME280;24008;42.664;23.372;2023-01-29T01:05:39;94846.53;;;-0.29;100.00
6136;BME280;24008;42.664;23.372;2023-01-29T01:08:07;94874.88;;;-0.27;100.00
6136;BME280;24008;42.664;23.372;2023-01-29T01:11:00;94765.09;;;-0.94;100.00
6136;BME280;24008;42.664;23.372;2023-01-29T01:13:26;94850.78;;;-0.31;100.00
6136;BME280;24008;42.664;23.372;2023-01-29T01:15:53;94842.38;;;-0.30;100.00
6136;BME280;24008;42.664;23.372;2023-01-29T01:18:20;94828.34;;;-0.51;100.00
6136;BME280;24008;42.664;23.372;2023-01-29T01:20:47;94840.16;;;-0.36;100.00
6136;BME280;24008;42.664;23.372;2023-01-29T01:23:17;94785.78;;;-0.72;100.00
6136;BME280;24008;42.664;23.372;2023-01-29T01:25:43;94780.19;;;-0.77;100.00
6136;BME280;24008;42.664;23.372;2023-01-29T01:28:11;94798.63;;;-0.78;100.00
6136;BME280;24008;42.664;23.372;2023-01-29T01:30:38;94765.13;;;-0.77;100.00
6136;BME280;24008;42.664;23.372;2023-01-29T01:33:05;94777.81;;;-0.80;100.00
6136;BME280;24008;42.664;23.372;2023-01-29T01:35:32;94761.69;;;-0.93;100.00
6136;BME280;24008;42.664;23.372;2023-01-29T01:37:58;94854.63;;;-0.41;100.00
6136;BME280;24008;42.664;23.372;2023-01-29T01:40:25;94779.38;;;-0.77;100.00
6136;BME280;24008;42.664;23.372;2023-01-29T01:42:54;94842.81;;;-0.39;100.00
6136;BME280;24008;42.664;23.372;2023-01-29T01:45:25;94842.81;;;-0.39;100.00
6136;BME280;24008;42.664;23.372;2023-01-29T01:47:55;94837.00;;;-0.40;100.00
6136;BME280;24008;42.664;23.372;2023-01-29T01:50:27;94837.63;;;-0.36;100.00
6136;BME280;24008;42.664;23.372;2023-01-29T01:52:58;94846.91;;;-0.37;100.00
6136;BME280;24008;42.664;23.372;2023-01-29T01:55:28;94745.31;;;-1.00;100.00
6136;BME280;24008;42.664;23.372;2023-01-29T01:57:59;94853.44;;;-0.34;100.00
6136;BME280;24008;42.664;23.372;2023-01-29T02:00:29;94798.31;;;-0.72;100.00
6136;BME280;24008;42.664;23.372;2023-01-29T02:02:56;94862.59;;;-0.33;100.00
6136;BME280;24008;42.664;23.372;2023-01-29T02:05:41;94828.09;;;-0.64;100.00
6136;BME280;24008;42.664;23.372;2023-01-29T02:08:30;94855.59;;;-0.44;100.00
6136;BME280;24008;42.664;23.372;2023-01-29T02:11:15;94856.53;;;-0.46;100.00
6136;BME280;24008;42.664;23.372;2023-01-29T02:13:43;94863.31;;;-0.48;100.00
6136;BME280;24008;42.664;23.372;2023-01-29T02:16:11;94859.84;;;-0.46;100.00
6136;BME280;24008;42.664;23.372;2023-01-29T02:18:38;94813.06;;;-0.83;100.00
6136;BME280;24008;42.664;23.372;2023-01-29T02:21:14;94863.03;;;-0.42;100.00
6136;BME280;24008;42.664;23.372;2023-01-29T02:24:20;94783.53;;;-0.95;100.00
6136;BME280;24008;42.664;23.372;2023-01-29T02:26:58;94869.69;;;-0.41;100.00
6136;BME280;24008;42.664;23.372;2023-01-29T02:29:35;94806.41;;;-0.84;100.00
6136;BME280;24008;42.664;23.372;2023-01-29T02:32:16;94883.13;;;-0.42;100.00
6136;BME280;24008;42.664;23.372;2023-01-29T02:34:54;94808.22;;;-0.86;100.00
6136;BME280;24008;42.664;23.372;2023-01-29T02:37:50;94880.63;;;-0.42;100.00
6136;BME280;24008;42.664;23.372;2023-01-29T02:40:27;94875.00;;;-0.47;100.00
6136;BME280;24008;42.664;23.372;2023-01-29T02:43:03;94866.63;;;-0.65;100.00
6136;BME280;24008;42.664;23.372;2023-01-29T02:45:40;94822.22;;;-0.82;100.00
6136;BME280;24008;42.664;23.372;2023-01-29T02:48:12;94881.63;;;-0.46;100.00
6136;BME280;24008;42.664;23.372;2023-01-29T02:50:43;94768.25;;;-1.26;100.00
6136;BME280;24008;42.664;23.372;2023-01-29T02:53:14;94883.41;;;-0.48;100.00
6136;BME280;24008;42.664;23.372;2023-01-29T02:55:45;94882.75;;;-0.52;100.00
6136;BME280;24008;42.664;23.372;2023-01-29T02:58:17;94886.81;;;-0.49;100.00
6136;BME280;24008;42.664;23.372;2023-01-29T03:00:48;94886.81;;;-0.49;100.00
6136;BME280;24008;42.664;23.372;2023-01-29T03:03:19;94874.34;;;-0.51;100.00
6136;BME280;24008;42.664;23.372;2023-01-29T03:05:52;94881.13;;;-0.53;100.00
6136;BME280;24008;42.664;23.372;2023-01-29T03:08:27;94753.47;;;-1.32;100.00
6136;BME280;24008;42.664;23.372;2023-01-29T03:11:03;94738.13;;;-1.43;100.00
6136;BME280;24008;42.664;23.372;2023-01-29T03:13:37;94878.38;;;-0.48;100.00
6136;BME280;24008;42.664;23.372;2023-01-29T03:16:14;94886.66;;;-0.46;100.00
6136;BME280;24008;42.664;23.372;2023-01-29T03:18:46;94877.66;;;-0.50;100.00
6136;BME280;24008;42.664;23.372;2023-01-29T03:21:19;94885.03;;;-0.47;100.00
6136;BME280;24008;42.664;23.372;2023-01-29T03:24:05;94746.25;;;-1.38;100.00
6136;BME280;24008;42.664;23.372;2023-01-29T03:26:52;94888.41;;;-0.48;100.00
6136;BME280;24008;42.664;23.372;2023-01-29T03:29:38;94833.44;;;-0.89;100.00
6136;BME280;24008;42.664;23.372;2023-01-29T03:32:26;94893.19;;;-0.42;100.00
6136;BME280;24008;42.664;23.372;2023-01-29T03:34:57;94897.25;;;-0.40;100.00
6136;BME280;24008;42.664;23.372;2023-01-29T03:37:32;94893.19;;;-0.42;100.00
6136;BME280;24008;42.664;23.372;2023-01-29T03:40:01;94899.81;;;-0.41;100.00
6136;BME280;24008;42.664;23.372;2023-01-29T03:42:36;94813.03;;;-1.00;100.00
6136;BME280;24008;42.664;23.372;2023-01-29T03:45:13;94860.66;;;-0.62;100.00
6136;BME280;24008;42.664;23.372;2023-01-29T03:47:47;94713.03;;;-1.61;100.00
6136;BME280;24008;42.664;23.372;2023-01-29T03:50:23;94888.97;;;-0.42;100.00
6136;BME280;24008;42.664;23.372;2023-01-29T03:52:59;94893.31;;;-0.45;100.00
6136;BME280;24008;42.664;23.372;2023-01-29T03:55:33;94889.97;;;-0.46;100.00
6136;BME280;24008;42.664;23.372;2023-01-29T03:58:05;94859.97;;;-0.66;100.00
6136;BME280;24008;42.664;23.372;2023-01-29T04:00:37;94891.63;;;-0.45;100.00
6136;BME280;24008;42.664;23.372;2023-01-29T04:03:12;94795.47;;;-1.00;100.00
6136;BME280;24008;42.664;23.372;2023-01-29T04:05:45;94887.63;;;-0.49;100.00
6136;BME280;24008;42.664;23.372;2023-01-29T04:08:15;94920.34;;;-0.50;100.00
6136;BME280;24008;42.664;23.372;2023-01-29T04:10:46;94889.47;;;-0.52;100.00
6136;BME280;24008;42.664;23.372;2023-01-29T04:13:15;94771.03;;;-1.32;100.00
6136;BME280;24008;42.664;23.372;2023-01-29T04:15:46;94888.72;;;-0.54;100.00
6136;BME280;24008;42.664;23.372;2023-01-29T04:18:17;94906.28;;;-0.54;100.00
6136;BME280;24008;42.664;23.372;2023-01-29T04:20:44;94905.53;;;-0.56;100.00
6136;BME280;24008;42.664;23.372;2023-01-29T04:23:19;94859.84;;;-0.82;100.00
6136;BME280;24008;42.664;23.372;2023-01-29T04:25:53;94903.91;;;-0.57;100.00
6136;BME280;24008;42.664;23.372;2023-01-29T04:28:27;94902.28;;;-0.58;100.00
6136;BME280;24008;42.664;23.372;2023-01-29T04:30:57;94883.06;;;-0.77;100.00
6136;BME280;24008;42.664;23.372;2023-01-29T04:33:34;94832.22;;;-0.99;100.00
6136;BME280;24008;42.664;23.372;2023-01-29T04:36:16;94901.47;;;-0.59;100.00
6136;BME280;24008;42.664;23.372;2023-01-29T04:38:52;94840.63;;;-1.00;100.00
6136;BME280;24008;42.664;23.372;2023-01-29T04:41:27;94893.41;;;-0.65;100.00
6136;BME280;24008;42.664;23.372;2023-01-29T04:44:00;94909.81;;;-0.58;100.00
6136;BME280;24008;42.664;23.372;2023-01-29T04:46:33;94810.69;;;-1.22;100.00
6136;BME280;24008;42.664;23.372;2023-01-29T04:49:12;94910.50;;;-0.55;100.00
6136;BME280;24008;42.664;23.372;2023-01-29T04:51:46;94776.22;;;-1.35;100.00
6136;BME280;24008;42.664;23.372;2023-01-29T04:54:21;94913.97;;;-0.57;100.00
6136;BME280;24008;42.664;23.372;2023-01-29T04:56:55;94910.69;;;-0.59;100.00
6136;BME280;24008;42.664;23.372;2023-01-29T04:59:29;94909.00;;;-0.59;100.00
6136;BME280;24008;42.664;23.372;2023-01-29T05:01:58;94907.47;;;-0.61;100.00
6136;BME280;24008;42.664;23.372;2023-01-29T05:04:28;94918.44;;;-0.64;100.00
6136;BME280;24008;42.664;23.372;2023-01-29T05:07:01;94920.16;;;-0.64;100.00
6136;BME280;24008;42.664;23.372;2023-01-29T05:09:29;94783.72;;;-1.54;100.00
6136;BME280;24008;42.664;23.372;2023-01-29T05:11:57;94826.75;;;-1.26;100.00
6136;BME280;24008;42.664;23.372;2023-01-29T05:14:24;94824.97;;;-1.42;100.00
6136;BME280;24008;42.664;23.372;2023-01-29T05:16:56;94924.28;;;-0.63;100.00
6136;BME280;24008;42.664;23.372;2023-01-29T05:19:25;94927.69;;;-0.64;100.00
6136;BME280;24008;42.664;23.372;2023-01-29T05:21:54;94925.16;;;-0.64;100.00
6136;BME280;24008;42.664;23.372;2023-01-29T05:24:22;94921.91;;;-0.66;100.00
6136;BME280;24008;42.664;23.372;2023-01-29T05:26:50;94803.50;;;-1.48;100.00
6136;BME280;24008;42.664;23.372;2023-01-29T05:29:35;94912.34;;;-0.77;100.00
6136;BME280;24008;42.664;23.372;2023-01-29T05:32:02;94649.22;;;-2.47;100.00
6136;BME280;24008;42.664;23.372;2023-01-29T05:34:29;94898.78;;;-0.92;100.00
6136;BME280;24008;42.664;23.372;2023-01-29T05:36:57;94942.88;;;-0.67;100.00
6136;BME280;24008;42.664;23.372;2023-01-29T05:39:24;94733.94;;;-1.99;100.00
6136;BME280;24008;42.664;23.372;2023-01-29T05:41:50;94585.06;;;-2.87;100.00
6136;BME280;24008;42.664;23.372;2023-01-29T05:44:17;94937.72;;;-0.64;100.00
6136;BME280;24008;42.664;23.372;2023-01-29T05:46:44;94813.13;;;-1.58;100.00
6136;BME280;24008;42.664;23.372;2023-01-29T05:49:11;94692.53;;;-2.27;100.00
6136;BME280;24008;42.664;23.372;2023-01-29T05:51:38;94859.75;;;-1.16;100.00
6136;BME280;24008;42.664;23.372;2023-01-29T05:54:06;94942.63;;;-0.61;100.00
6136;BME280;24008;42.664;23.372;2023-01-29T05:56:33;94944.06;;;-0.57;100.00
6136;BME280;24008;42.664;23.372;2023-01-29T05:58:59;94819.84;;;-1.39;100.00
6136;BME280;24008;42.664;23.372;2023-01-29T06:01:26;94906.13;;;-0.87;100.00
6136;BME280;24008;42.664;23.372;2023-01-29T06:03:53;94948.63;;;-0.65;100.00
6136;BME280;24008;42.664;23.372;2023-01-29T06:06:19;94951.97;;;-0.65;100.00
6136;BME280;24008;42.664;23.372;2023-01-29T06:08:46;94845.25;;;-1.28;100.00
6136;BME280;24008;42.664;23.372;2023-01-29T06:11:15;94966.09;;;-0.62;100.00
6136;BME280;24008;42.664;23.372;2023-01-29T06:13:43;94904.09;;;-0.98;100.00
6136;BME280;24008;42.664;23.372;2023-01-29T06:16:11;94880.38;;;-1.10;100.00
6136;BME280;24008;42.664;23.372;2023-01-29T06:18:39;94931.06;;;-0.65;100.00
6136;BME280;24008;42.664;23.372;2023-01-29T06:21:07;94971.00;;;-0.42;100.00
6136;BME280;24008;42.664;23.372;2023-01-29T06:23:35;94980.94;;;-0.39;100.00
6136;BME280;24008;42.664;23.372;2023-01-29T06:26:03;94983.44;;;-0.39;100.00
6136;BME280;24008;42.664;23.372;2023-01-29T06:28:32;94977.59;;;-0.40;100.00
6136;BME280;24008;42.664;23.372;2023-01-29T06:31:00;94825.72;;;-1.40;100.00
6136;BME280;24008;42.664;23.372;2023-01-29T06:33:27;94980.84;;;-0.38;100.00
6136;BME280;24008;42.664;23.372;2023-01-29T06:35:55;94970.25;;;-0.44;100.00
6136;BME280;24008;42.664;23.372;2023-01-29T06:38:22;94959.53;;;-0.48;100.00
6136;BME280;24008;42.664;23.372;2023-01-29T06:40:49;94994.31;;;-0.21;100.00
6136;BME280;24008;42.664;23.372;2023-01-29T06:43:16;94994.31;;;-0.21;100.00
6136;BME280;24008;42.664;23.372;2023-01-29T06:45:49;94893.53;;;-0.86;100.00
6136;BME280;24008;42.664;23.372;2023-01-29T06:48:16;94998.28;;;-0.16;100.00
6136;BME280;24008;42.664;23.372;2023-01-29T06:50:45;95002.13;;;-0.09;100.00
6136;BME280;24008;42.664;23.372;2023-01-29T06:53:14;95003.75;;;-0.08;100.00
6136;BME280;24008;42.664;23.372;2023-01-29T06:55:42;95008.91;;;-0.11;100.00
6136;BME280;24008;42.664;23.372;2023-01-29T06:58:10;95011.16;;;-0.05;100.00
6136;BME280;24008;42.664;23.372;2023-01-29T07:00:37;95013.66;;;-0.05;100.00
6136;BME280;24008;42.664;23.372;2023-01-29T07:03:08;95011.91;;;-0.03;100.00
6136;BME280;24008;42.664;23.372;2023-01-29T07:05:35;95019.22;;;0.02;100.00
6136;BME280;24008;42.664;23.372;2023-01-29T07:08:02;95016.69;;;0.02;100.00
6136;BME280;24008;42.664;23.372;2023-01-29T07:10:29;94627.31;;;-2.42;100.00
6136;BME280;24008;42.664;23.372;2023-01-29T07:12:57;95017.44;;;0.04;100.00
6136;BME280;24008;42.664;23.372;2023-01-29T07:15:24;94997.09;;;-0.09;100.00
6136;BME280;24008;42.664;23.372;2023-01-29T07:17:55;94904.34;;;-0.66;100.00
6136;BME280;24008;42.664;23.372;2023-01-29T07:20:25;95051.53;;;0.10;100.00
6136;BME280;24008;42.664;23.372;2023-01-29T07:22:55;95029.81;;;0.09;100.00
6136;BME280;24008;42.664;23.372;2023-01-29T07:25:22;95032.78;;;0.17;100.00
6136;BME280;24008;42.664;23.372;2023-01-29T07:27:48;94982.91;;;-0.10;100.00
6136;BME280;24008;42.664;23.372;2023-01-29T07:30:16;95031.63;;;0.24;100.00
6136;BME280;24008;42.664;23.372;2023-01-29T07:32:42;95035.72;;;0.25;100.00
6136;BME280;24008;42.664;23.372;2023-01-29T07:35:09;95032.50;;;0.23;100.00
6136;BME280;24008;42.664;23.372;2023-01-29T07:37:38;95034.84;;;0.26;100.00
6136;BME280;24008;42.664;23.372;2023-01-29T07:40:05;94970.78;;;-0.19;100.00
6136;BME280;24008;42.664;23.372;2023-01-29T07:42:36;95009.56;;;0.12;100.00
6136;BME280;24008;42.664;23.372;2023-01-29T07:45:05;94995.44;;;0.09;100.00
6136;BME280;24008;42.664;23.372;2023-01-29T07:47:32;95035.75;;;0.42;100.00
6136;BME280;24008;42.664;23.372;2023-01-29T07:49:59;95046.19;;;0.34;100.00
6136;BME280;24008;42.664;23.372;2023-01-29T07:52:28;95003.56;;;0.14;100.00
6136;BME280;24008;42.664;23.372;2023-01-29T07:54:56;94942.66;;;-0.44;100.00
6136;BME280;24008;42.664;23.372;2023-01-29T07:57:23;95045.88;;;0.23;100.00
6136;BME280;24008;42.664;23.372;2023-01-29T07:59:50;95012.03;;;-0.06;100.00
6136;BME280;24008;42.664;23.372;2023-01-29T08:02:17;95041.63;;;0.07;100.00
6136;BME280;24008;42.664;23.372;2023-01-29T08:04:43;94978.88;;;-0.31;100.00
6136;BME280;24008;42.664;23.372;2023-01-29T08:07:10;95025.22;;;-0.01;100.00
6136;BME280;24008;42.664;23.372;2023-01-29T08:09:37;95050.28;;;0.18;100.00
6136;BME280;24008;42.664;23.372;2023-01-29T08:12:05;95056.53;;;0.28;100.00
6136;BME280;24008;42.664;23.372;2023-01-29T08:14:32;94888.09;;;-0.77;100.00
6136;BME280;24008;42.664;23.372;2023-01-29T08:16:59;95065.63;;;0.31;100.00
6136;BME280;24008;42.664;23.372;2023-01-29T08:19:26;95029.50;;;0.15;100.00
6136;BME280;24008;42.664;23.372;2023-01-29T08:21:52;95062.91;;;0.35;100.00
6136;BME280;24008;42.664;23.372;2023-01-29T08:24:19;95004.28;;;-0.01;100.00
6136;BME280;24008;42.664;23.372;2023-01-29T08:26:46;95065.31;;;0.37;100.00
6136;BME280;24008;42.664;23.372;2023-01-29T08:29:14;95061.94;;;0.38;100.00
6136;BME280;24008;42.664;23.372;2023-01-29T08:31:41;95072.16;;;0.35;100.00
6136;BME280;24008;42.664;23.372;2023-01-29T08:34:08;95042.13;;;0.13;100.00
6136;BME280;24008;42.664;23.372;2023-01-29T08:36:35;95073.47;;;0.42;100.00
6136;BME280;24008;42.664;23.372;2023-01-29T08:39:02;95045.06;;;0.23;100.00
6136;BME280;24008;42.664;23.372;2023-01-29T08:41:29;95048.03;;;0.31;100.00
6136;BME280;24008;42.664;23.372;2023-01-29T08:43:56;95047.81;;;0.35;100.00
6136;BME280;24008;42.664;23.372;2023-01-29T08:46:26;95079.56;;;0.55;100.00
6136;BME280;24008;42.664;23.372;2023-01-29T08:48:52;95075.50;;;0.53;100.00
6136;BME280;24008;42.664;23.372;2023-01-29T08:51:19;95077.66;;;0.60;100.00
6136;BME280;24008;42.664;23.372;2023-01-29T08:53:47;95090.00;;;0.65;99.82
6136;BME280;24008;42.664;23.372;2023-01-29T08:56:14;95054.25;;;0.41;98.85
6136;BME280;24008;42.664;23.372;2023-01-29T08:58:42;95089.13;;;0.66;98.62
6136;BME280;24008;42.664;23.372;2023-01-29T09:01:10;95098.44;;;0.64;97.93
6136;BME280;24008;42.664;23.372;2023-01-29T09:03:39;95094.75;;;0.71;97.58
6136;BME280;24008;42.664;23.372;2023-01-29T09:06:09;95102.19;;;0.72;97.39
6136;BME280;24008;42.664;23.372;2023-01-29T09:08:36;95107.16;;;0.74;97.34
6136;BME280;24008;42.664;23.372;2023-01-29T09:11:03;95094.44;;;0.77;97.10
6136;BME280;24008;42.664;23.372;2023-01-29T09:13:30;95001.13;;;0.13;96.26
6136;BME280;24008;42.664;23.372;2023-01-29T09:15:58;94972.72;;;-0.07;96.72
6136;BME280;24008;42.664;23.372;2023-01-29T09:18:26;94818.38;;;-0.89;96.43
6136;BME280;24008;42.664;23.372;2023-01-29T09:20:54;95090.59;;;0.87;96.01
6136;BME280;24008;42.664;23.372;2023-01-29T09:23:21;95096.16;;;0.94;95.70
6136;BME280;24008;42.664;23.372;2023-01-29T09:25:50;95096.44;;;0.88;95.07
6136;BME280;24008;42.664;23.372;2023-01-29T09:28:17;95091.41;;;0.88;94.38
6136;BME280;24008;42.664;23.372;2023-01-29T09:30:44;95072.31;;;0.66;94.09
6136;BME280;24008;42.664;23.372;2023-01-29T09:33:11;95086.22;;;0.73;93.92
6136;BME280;24008;42.664;23.372;2023-01-29T09:35:39;95039.59;;;0.49;94.27
6136;BME280;24008;42.664;23.372;2023-01-29T09:38:08;95086.97;;;0.76;94.06
6136;BME280;24008;42.664;23.372;2023-01-29T09:43:26;95084.19;;;0.82;94.17
6136;BME280;24008;42.664;23.372;2023-01-29T09:46:00;95015.28;;;0.32;93.84
6136;BME280;24008;42.664;23.372;2023-01-29T09:48:32;95082.16;;;0.88;93.69
6136;BME280;24008;42.664;23.372;2023-01-29T09:51:03;95056.78;;;0.76;93.74
6136;BME280;24008;42.664;23.372;2023-01-29T09:53:38;95078.75;;;0.89;93.43
6136;BME280;24008;42.664;23.372;2023-01-29T09:56:11;94914.44;;;-0.13;92.87
6136;BME280;24008;42.664;23.372;2023-01-29T09:58:39;95077.00;;;0.91;92.89
6136;BME280;24008;42.664;23.372;2023-01-29T10:01:12;95045.16;;;0.73;93.06
6136;BME280;24008;42.664;23.372;2023-01-29T10:04:05;95079.38;;;0.94;92.52
6136;BME280;24008;42.664;23.372;2023-01-29T10:06:51;95082.84;;;0.92;92.77
6136;BME280;24008;42.664;23.372;2023-01-29T10:09:48;95075.44;;;0.89;92.50
6136;BME280;24008;42.664;23.372;2023-01-29T10:12:31;94973.50;;;0.30;92.22
6136;BME280;24008;42.664;23.372;2023-01-29T10:15:12;94925.13;;;-0.10;92.37
6136;BME280;24008;42.664;23.372;2023-01-29T10:17:53;95088.47;;;0.80;92.46
6136;BME280;24008;42.664;23.372;2023-01-29T10:20:42;95034.22;;;0.57;92.08
6136;BME280;24008;42.664;23.372;2023-01-29T10:23:21;95059.28;;;0.76;92.47
6136;BME280;24008;42.664;23.372;2023-01-29T10:25:51;95058.13;;;0.83;92.94
6136;BME280;24008;42.664;23.372;2023-01-29T10:28:23;95013.72;;;0.64;93.07
6136;BME280;24008;42.664;23.372;2023-01-29T10:30:55;94990.72;;;0.55;92.39
6136;BME280;24008;42.664;23.372;2023-01-29T10:33:29;95014.25;;;0.71;92.13
6136;BME280;24008;42.664;23.372;2023-01-29T10:36:02;95043.88;;;0.99;92.15
6136;BME280;24008;42.664;23.372;2023-01-29T10:38:37;94980.06;;;0.67;92.00
6136;BME280;24008;42.664;23.372;2023-01-29T10:41:19;95042.63;;;1.07;91.90
6136;BME280;24008;42.664;23.372;2023-01-29T10:44:00;95044.28;;;1.08;91.17
6136;BME280;24008;42.664;23.372;2023-01-29T10:46:42;94958.31;;;0.49;90.99
6136;BME280;24008;42.664;23.372;2023-01-29T10:49:21;95048.09;;;0.98;90.93
6136;BME280;24008;42.664;23.372;2023-01-29T10:52:01;95047.06;;;1.02;91.45
6136;BME280;24008;42.664;23.372;2023-01-29T10:54:52;95010.16;;;0.86;91.69
6136;BME280;24008;42.664;23.372;2023-01-29T10:57:35;95015.63;;;0.94;92.00
6136;BME280;24008;42.664;23.372;2023-01-29T11:00:11;94984.63;;;0.76;91.49
6136;BME280;24008;42.664;23.372;2023-01-29T11:02:43;95032.31;;;1.12;91.31
6136;BME280;24008;42.664;23.372;2023-01-29T11:05:18;95035.13;;;1.23;91.55
6136;BME280;24008;42.664;23.372;2023-01-29T11:07:47;94981.16;;;0.96;91.23
6136;BME280;24008;42.664;23.372;2023-01-29T11:10:16;95033.94;;;1.30;90.73
6136;BME280;24008;42.664;23.372;2023-01-29T11:12:49;95025.03;;;1.23;90.43
6136;BME280;24008;42.664;23.372;2023-01-29T11:15:19;95030.06;;;1.23;90.63
6136;BME280;24008;42.664;23.372;2023-01-29T11:18:03;95022.38;;;1.26;90.63
6136;BME280;24008;42.664;23.372;2023-01-29T11:20:31;95012.00;;;1.32;90.84
6136;BME280;24008;42.664;23.372;2023-01-29T11:22:58;95015.81;;;1.39;90.08
6136;BME280;24008;42.664;23.372;2023-01-29T11:25:25;94983.06;;;1.24;89.25
6136;BME280;24008;42.664;23.372;2023-01-29T11:28:02;95014.47;;;1.50;89.16
6136;BME280;24008;42.664;23.372;2023-01-29T11:30:31;94953.25;;;1.16;87.56
6136;BME280;24008;42.664;23.372;2023-01-29T11:33:08;95011.88;;;1.67;87.40
6136;BME280;24008;42.664;23.372;2023-01-29T11:35:37;95009.19;;;1.70;87.60
6136;BME280;24008;42.664;23.372;2023-01-29T11:38:14;94944.00;;;1.48;86.76
6136;BME280;24008;42.664;23.372;2023-01-29T11:40:44;94927.19;;;1.49;86.41
6136;BME280;24008;42.664;23.372;2023-01-29T11:43:19;94992.75;;;1.94;86.54
6136;BME280;24008;42.664;23.372;2023-01-29T11:45:47;94893.91;;;1.43;85.88
6136;BME280;24008;42.664;23.372;2023-01-29T11:48:16;94957.16;;;2.00;86.41
6136;BME280;24008;42.664;23.372;2023-01-29T11:50:50;94963.22;;;2.12;85.45
6136;BME280;24008;42.664;23.372;2023-01-29T11:53:38;94984.31;;;2.41;85.28
6136;BME280;24008;42.664;23.372;2023-01-29T11:56:19;94856.50;;;1.67;84.11
6136;BME280;24008;42.664;23.372;2023-01-29T11:58:53;94948.56;;;2.18;85.25
6136;BME280;24008;42.664;23.372;2023-01-29T12:01:29;94976.91;;;2.38;84.62
6136;BME280;24008;42.664;23.372;2023-01-29T12:03:58;94902.59;;;1.99;84.40
6136;BME280;24008;42.664;23.372;2023-01-29T12:06:31;94986.28;;;2.36;83.62
6136;BME280;24008;42.664;23.372;2023-01-29T12:09:00;94923.84;;;1.79;83.85
6136;BME280;24008;42.664;23.372;2023-01-29T12:11:29;94981.34;;;2.18;83.93
6136;BME280;24008;42.664;23.372;2023-01-29T12:13:59;94979.00;;;2.15;83.85
6136;BME280;24008;42.664;23.372;2023-01-29T12:16:29;94970.28;;;2.05;83.53
6136;BME280;24008;42.664;23.372;2023-01-29T12:19:04;94917.13;;;1.64;83.92
6136;BME280;24008;42.664;23.372;2023-01-29T12:21:38;94979.53;;;1.91;84.42
6136;BME280;24008;42.664;23.372;2023-01-29T12:24:15;94902.09;;;1.47;85.04
6136;BME280;24008;42.664;23.372;2023-01-29T12:26:50;94968.06;;;1.85;84.56
6136;BME280;24008;42.664;23.372;2023-01-29T12:29:29;94910.56;;;1.30;84.93
6136;BME280;24008;42.664;23.372;2023-01-29T12:32:05;94975.31;;;1.75;85.31
6136;BME280;24008;42.664;23.372;2023-01-29T12:34:37;94985.16;;;1.80;85.74
6136;BME280;24008;42.664;23.372;2023-01-29T12:37:15;94978.13;;;1.85;85.49
6136;BME280;24008;42.664;23.372;2023-01-29T12:39:44;94986.34;;;1.73;85.06
6136;BME280;24008;42.664;23.372;2023-01-29T12:42:15;94981.16;;;1.76;85.40
6136;BME280;24008;42.664;23.372;2023-01-29T12:44:59;94908.03;;;1.30;85.81
6136;BME280;24008;42.664;23.372;2023-01-29T12:47:37;94946.53;;;1.64;85.80
6136;BME280;24008;42.664;23.372;2023-01-29T12:50:16;94984.66;;;1.89;85.73
6136;BME280;24008;42.664;23.372;2023-01-29T12:52:47;94980.16;;;1.94;84.50
6136;BME280;24008;42.664;23.372;2023-01-29T12:55:17;94915.81;;;1.57;85.15
6136;BME280;24008;42.664;23.372;2023-01-29T12:57:49;94890.81;;;1.38;84.46
6136;BME280;24008;42.664;23.372;2023-01-29T13:00:26;94979.03;;;2.00;84.23
6136;BME280;24008;42.664;23.372;2023-01-29T13:02:59;94976.34;;;2.03;83.88
6136;BME280;24008;42.664;23.372;2023-01-29T13:05:33;94981.63;;;1.98;83.86
6136;BME280;24008;42.664;23.372;2023-01-29T13:08:05;94987.47;;;1.99;84.09
6136;BME280;24008;42.664;23.372;2023-01-29T13:10:36;94975.28;;;1.91;84.76
6136;BME280;24008;42.664;23.372;2023-01-29T13:13:14;94969.84;;;1.83;84.84
6136;BME280;24008;42.664;23.372;2023-01-29T13:15:51;94964.09;;;1.81;85.12
6136;BME280;24008;42.664;23.372;2023-01-29T13:18:35;94887.38;;;1.24;84.89
6136;BME280;24008;42.664;23.372;2023-01-29T13:21:46;94991.88;;;1.64;84.27
6136;BME280;24008;42.664;23.372;2023-01-29T13:24:15;94978.22;;;1.52;85.14